Time;durP1;ratioP1;P1;durP2;ratioP2;P2;SDS_P1;SDS_P2;PMS_P1;PMS_P2;Temp;Humidity;BMP_temperature;BMP_pressure;BME280_temperature;BME280_humidity;BME280_pressure;Samples;Min_cycle;Max_cycle;Signal;HPM_P1;HPM_P2
2023/12/10 00:00:42;;;;;;;1.57;1.50;;;6.90;81.50;;;;;;5046616;28;20213;-66
2023/12/10 00:03:08;;;;;;;1.70;1.60;;;6.90;81.10;;;;;;5046168;28;20208;-66
2023/12/10 00:05:35;;;;;;;2.00;1.90;;;6.90;81.00;;;;;;5040052;28;20325;-66
2023/12/10 00:08:02;;;;;;;1.70;1.60;;;6.90;80.60;;;;;;5050090;28;20208;-66
2023/12/10 00:10:28;;;;;;;1.73;1.67;;;6.90;80.10;;;;;;5046918;28;20199;-66
2023/12/10 00:12:55;;;;;;;1.90;1.80;;;6.90;79.80;;;;;;5045804;28;20204;-66
2023/12/10 00:15:21;;;;;;;1.63;1.63;;;6.90;79.40;;;;;;5045533;28;20237;-66
2023/12/10 00:17:48;;;;;;;1.50;1.50;;;6.90;79.40;;;;;;5048214;28;20592;-66
2023/12/10 00:20:14;;;;;;;2.10;2.00;;;6.90;78.80;;;;;;5051094;28;20266;-67
2023/12/10 00:22:41;;;;;;;1.90;1.80;;;6.90;78.30;;;;;;5042760;28;20231;-66
2023/12/10 00:25:08;;;;;;;1.80;1.70;;;6.90;77.90;;;;;;5042913;28;20715;-66
2023/12/10 00:27:35;;;;;;;1.70;1.70;;;7.00;78.00;;;;;;5049567;28;20209;-66
2023/12/10 00:30:02;;;;;;;1.63;1.53;;;7.00;77.40;;;;;;5049845;28;20249;-66
2023/12/10 00:32:29;;;;;;;1.60;1.60;;;7.00;77.30;;;;;;5043574;28;20223;-66
2023/12/10 00:34:56;;;;;;;2.10;2.00;;;7.00;76.90;;;;;;5042117;28;20288;-66
2023/12/10 00:37:22;;;;;;;1.97;1.87;;;7.00;76.90;;;;;;5044499;28;20572;-66
2023/12/10 00:39:49;;;;;;;1.67;1.57;;;7.00;76.50;;;;;;5045497;28;20700;-66
2023/12/10 00:42:15;;;;;;;2.20;1.50;;;7.00;76.50;;;;;;5048591;28;20212;-66
2023/12/10 00:44:42;;;;;;;1.70;1.70;;;7.00;76.20;;;;;;5052355;28;20207;-66
2023/12/10 00:47:08;;;;;;;1.63;1.50;;;7.00;76.00;;;;;;5044836;28;20737;-66
2023/12/10 00:49:35;;;;;;;1.73;1.63;;;7.10;75.50;;;;;;5040929;28;20229;-66
2023/12/10 00:52:02;;;;;;;1.40;1.40;;;7.10;74.60;;;;;;5041498;28;20259;-66
2023/12/10 00:54:29;;;;;;;1.67;1.60;;;7.00;74.40;;;;;;5048180;28;20212;-66
2023/12/10 00:56:56;;;;;;;1.80;1.70;;;7.10;74.50;;;;;;5048970;28;20208;-66
2023/12/10 00:59:22;;;;;;;2.37;1.80;;;7.10;73.60;;;;;;5038704;28;20288;-66
2023/12/10 01:01:49;;;;;;;1.80;1.70;;;7.10;73.50;;;;;;5044874;28;20729;-66
2023/12/10 01:04:16;;;;;;;1.63;1.60;;;7.10;73.30;;;;;;5044737;28;20270;-66
2023/12/10 01:06:42;;;;;;;1.70;1.60;;;7.10;73.10;;;;;;5045821;28;21016;-66
2023/12/10 01:09:09;;;;;;;2.30;1.70;;;7.10;73.20;;;;;;5050157;28;20209;-66
2023/12/10 01:11:36;;;;;;;1.60;1.50;;;7.10;73.20;;;;;;5051595;28;20682;-66
2023/12/10 01:14:03;;;;;;;1.77;1.67;;;7.00;73.00;;;;;;5044849;28;20267;-66
2023/12/10 01:16:30;;;;;;;2.00;1.80;;;7.10;72.50;;;;;;5036369;28;20266;-66
2023/12/10 01:18:56;;;;;;;2.17;1.80;;;7.10;72.50;;;;;;5044581;28;20316;-67
2023/12/10 01:21:23;;;;;;;1.37;1.33;;;7.10;72.40;;;;;;5044603;28;20259;-66
2023/12/10 01:23:54;;;;;;;1.80;1.70;;;7.10;72.50;;;;;;5048467;28;20211;-66
2023/12/10 01:26:20;;;;;;;1.80;1.70;;;7.10;72.70;;;;;;5041824;28;20305;-66
2023/12/10 01:28:47;;;;;;;1.90;1.80;;;7.10;72.50;;;;;;5050943;28;20279;-66
2023/12/10 01:31:12;;;;;;;1.70;1.60;;;7.10;72.50;;;;;;5042665;28;20208;-67
2023/12/10 01:33:39;;;;;;;2.50;1.23;;;7.10;72.50;;;;;;5042534;28;20205;-66
2023/12/10 01:36:06;;;;;;;1.73;1.63;;;7.00;73.20;;;;;;5043054;28;20227;-67
2023/12/10 01:38:34;;;;;;;1.87;1.77;;;7.00;73.80;;;;;;5032311;28;20239;-67
2023/12/10 01:41:01;;;;;;;1.73;1.63;;;7.00;73.70;;;;;;5046960;28;20246;-66
2023/12/10 01:43:27;;;;;;;2.00;1.80;;;7.00;73.50;;;;;;5051930;28;20588;-67
2023/12/10 01:45:54;;;;;;;1.73;1.63;;;7.00;73.30;;;;;;5044112;28;20262;-67
2023/12/10 01:48:21;;;;;;;2.03;1.50;;;7.00;72.90;;;;;;5043233;28;20205;-66
2023/12/10 01:50:48;;;;;;;1.83;1.50;;;7.00;73.00;;;;;;5044068;28;20681;-67
2023/12/10 01:53:14;;;;;;;4.27;1.70;;;6.90;74.30;;;;;;5042929;28;20212;-67
2023/12/10 01:55:41;;;;;;;1.70;1.60;;;6.90;74.30;;;;;;5044737;28;20271;-67
2023/12/10 01:58:08;;;;;;;1.97;1.80;;;6.90;74.30;;;;;;5048862;28;20212;-66
2023/12/10 02:00:34;;;;;;;1.63;1.53;;;6.90;75.00;;;;;;5043997;28;20204;-67
2023/12/10 02:03:02;;;;;;;1.63;1.53;;;6.80;75.40;;;;;;5039237;28;20208;-66
2023/12/10 02:05:29;;;;;;;1.67;1.50;;;6.90;75.90;;;;;;5038262;28;20232;-65
2023/12/10 02:07:56;;;;;;;1.93;1.53;;;6.80;75.10;;;;;;5043466;28;20614;-66
2023/12/10 02:10:22;;;;;;;2.13;1.70;;;6.90;75.50;;;;;;5037956;28;20204;-66
2023/12/10 02:12:52;;;;;;;1.93;1.77;;;6.80;75.30;;;;;;5047774;28;20610;-67
2023/12/10 02:15:18;;;;;;;3.73;2.23;;;6.80;75.50;;;;;;5041084;28;20239;-66
2023/12/10 02:17:45;;;;;;;1.90;1.70;;;6.70;75.50;;;;;;5043471;28;20212;-66
2023/12/10 02:20:11;;;;;;;2.43;1.90;;;6.70;75.90;;;;;;5042753;28;20232;-66
2023/12/10 02:22:38;;;;;;;2.17;1.60;;;6.70;75.60;;;;;;5047292;28;20565;-66
2023/12/10 02:25:05;;;;;;;2.17;1.60;;;6.70;75.90;;;;;;5040070;28;20233;-66
2023/12/10 02:27:31;;;;;;;2.10;2.00;;;6.70;76.30;;;;;;5045984;28;20231;-66
2023/12/10 02:29:58;;;;;;;1.70;1.60;;;6.70;75.40;;;;;;5039869;28;20247;-66
2023/12/10 02:32:25;;;;;;;1.80;1.47;;;6.60;75.20;;;;;;5048501;28;20204;-66
2023/12/10 02:34:51;;;;;;;1.83;1.73;;;6.60;74.30;;;;;;5043025;28;20232;-66
2023/12/10 02:37:18;;;;;;;2.33;1.60;;;6.60;73.20;;;;;;5041067;28;20208;-67
2023/12/10 02:39:44;;;;;;;1.50;1.40;;;6.60;72.40;;;;;;5041096;28;20229;-66
2023/12/10 02:42:11;;;;;;;1.47;1.47;;;6.60;72.30;;;;;;5039549;28;20213;-66
2023/12/10 02:44:37;;;;;;;1.90;1.80;;;6.50;72.30;;;;;;5042947;28;20732;-66
2023/12/10 02:47:04;;;;;;;1.70;1.70;;;6.40;70.80;;;;;;5044053;28;20560;-66
2023/12/10 02:49:31;;;;;;;1.50;1.50;;;6.40;70.60;;;;;;5047459;28;20209;-66
2023/12/10 02:51:57;;;;;;;2.00;1.70;;;6.40;70.60;;;;;;5043589;28;20249;-67
2023/12/10 02:54:24;;;;;;;1.83;1.70;;;6.40;70.20;;;;;;5044501;28;20264;-66
2023/12/10 02:56:50;;;;;;;2.70;1.60;;;6.40;69.90;;;;;;5045229;28;20291;-66
2023/12/10 02:59:17;;;;;;;2.00;1.80;;;6.20;70.00;;;;;;5041519;28;20308;-67
2023/12/10 03:01:44;;;;;;;2.00;1.80;;;6.20;70.00;;;;;;5039469;28;20584;-67
2023/12/10 03:04:11;;;;;;;1.63;1.60;;;6.30;69.80;;;;;;5034850;28;20630;-67
2023/12/10 03:06:37;;;;;;;1.77;1.67;;;6.30;70.00;;;;;;5046757;28;20234;-67
2023/12/10 03:09:04;;;;;;;3.13;2.00;;;6.20;69.90;;;;;;5040998;28;20250;-66
2023/12/10 03:11:31;;;;;;;2.30;1.60;;;6.20;69.20;;;;;;5037091;28;20256;-66
2023/12/10 03:13:57;;;;;;;2.30;1.80;;;6.10;69.80;;;;;;5046817;28;20214;-66
2023/12/10 03:16:24;;;;;;;3.33;1.87;;;6.20;69.60;;;;;;5045377;28;20301;-66
2023/12/10 03:18:50;;;;;;;3.40;1.97;;;6.10;69.20;;;;;;5039373;28;20239;-67
2023/12/10 03:21:17;;;;;;;2.43;1.83;;;6.10;69.10;;;;;;5040329;28;20218;-66
2023/12/10 03:23:43;;;;;;;3.13;1.83;;;6.10;69.50;;;;;;5045112;28;20208;-67
2023/12/10 03:26:10;;;;;;;2.23;1.80;;;6.10;69.50;;;;;;5041812;28;20231;-66
2023/12/10 03:28:36;;;;;;;2.57;1.80;;;6.00;69.30;;;;;;5039518;28;20227;-66
2023/12/10 03:31:03;;;;;;;2.70;1.83;;;6.10;69.10;;;;;;5044845;28;20202;-66
2023/12/10 03:33:31;;;;;;;2.03;1.90;;;6.10;69.10;;;;;;5047396;28;20211;-65
2023/12/10 03:35:58;;;;;;;3.80;2.00;;;6.00;68.60;;;;;;5046848;28;20231;-66
2023/12/10 03:38:24;;;;;;;2.80;2.13;;;6.10;68.30;;;;;;5044295;28;20628;-67
2023/12/10 03:40:51;;;;;;;4.30;2.63;;;6.10;68.40;;;;;;5046865;28;20658;-66
2023/12/10 03:43:18;;;;;;;2.67;2.10;;;6.10;68.20;;;;;;5051248;28;20209;-67
2023/12/10 03:45:44;;;;;;;4.97;2.17;;;6.20;68.10;;;;;;5043472;28;20586;-66
2023/12/10 03:48:11;;;;;;;3.00;2.00;;;6.20;68.00;;;;;;5042657;28;20321;-66
2023/12/10 03:50:37;;;;;;;3.30;2.10;;;6.20;68.00;;;;;;5046773;28;20540;-66
2023/12/10 03:53:04;;;;;;;4.10;3.07;;;6.20;67.90;;;;;;5046129;28;20260;-66
2023/12/10 03:55:30;;;;;;;4.63;2.30;;;6.20;67.80;;;;;;5044245;28;20242;-66
2023/12/10 03:57:57;;;;;;;4.77;2.20;;;6.20;67.90;;;;;;5054298;28;20204;-66
2023/12/10 04:00:23;;;;;;;5.43;2.10;;;6.20;67.40;;;;;;5043666;28;20232;-65
2023/12/10 04:02:50;;;;;;;3.83;2.57;;;6.20;67.60;;;;;;5043955;28;20208;-66
2023/12/10 04:05:17;;;;;;;2.80;2.00;;;6.20;67.70;;;;;;5050939;28;20297;-66
2023/12/10 04:07:43;;;;;;;3.47;2.47;;;6.10;67.40;;;;;;5043548;28;20195;-66
2023/12/10 04:10:10;;;;;;;4.93;2.40;;;6.10;67.60;;;;;;5041084;28;20218;-66
2023/12/10 04:12:36;;;;;;;2.30;2.10;;;6.10;67.70;;;;;;5046478;28;20379;-66
2023/12/10 04:15:03;;;;;;;2.73;1.93;;;6.10;68.00;;;;;;5046765;28;20230;-66
2023/12/10 04:17:29;;;;;;;3.43;2.10;;;6.00;68.10;;;;;;5045646;28;20207;-66
2023/12/10 04:19:56;;;;;;;5.03;2.30;;;6.00;67.90;;;;;;5046210;28;20692;-66
2023/12/10 04:22:22;;;;;;;3.67;2.30;;;6.00;67.50;;;;;;5043968;28;20203;-66
2023/12/10 04:24:49;;;;;;;2.83;2.33;;;6.10;67.90;;;;;;5048223;28;20223;-66
2023/12/10 04:27:16;;;;;;;7.13;2.60;;;6.10;67.60;;;;;;5042700;28;20215;-65
2023/12/10 04:29:42;;;;;;;3.13;2.10;;;6.10;67.30;;;;;;5037923;28;20274;-65
2023/12/10 04:32:09;;;;;;;4.80;2.10;;;6.20;67.30;;;;;;5045549;28;20531;-66
2023/12/10 04:34:36;;;;;;;4.60;2.30;;;6.30;66.70;;;;;;5045812;28;20647;-66
2023/12/10 04:37:02;;;;;;;4.53;2.40;;;6.20;67.00;;;;;;5045667;28;20239;-66
2023/12/10 04:39:29;;;;;;;3.77;2.20;;;6.20;66.60;;;;;;5042537;28;20582;-65
2023/12/10 04:41:55;;;;;;;3.90;2.67;;;6.20;66.90;;;;;;5048093;28;20290;-66
2023/12/10 04:44:22;;;;;;;4.77;2.23;;;6.20;66.90;;;;;;5050948;28;20215;-66
2023/12/10 04:46:48;;;;;;;4.50;2.80;;;6.20;66.70;;;;;;5041644;28;20319;-66
2023/12/10 04:49:15;;;;;;;5.20;2.80;;;6.30;66.60;;;;;;5053059;28;20199;-66
2023/12/10 04:51:42;;;;;;;5.00;2.53;;;6.30;66.80;;;;;;5051688;28;20243;-66
2023/12/10 04:54:08;;;;;;;8.67;2.37;;;6.30;67.20;;;;;;5044986;28;20207;-66
2023/12/10 04:56:35;;;;;;;5.17;2.83;;;6.30;68.90;;;;;;5043980;28;20771;-66
2023/12/10 04:59:01;;;;;;;6.60;2.80;;;6.10;70.40;;;;;;5045517;28;20804;-68
2023/12/10 05:01:28;;;;;;;6.70;2.43;;;6.10;71.90;;;;;;5048537;28;20228;-67
2023/12/10 05:03:54;;;;;;;4.50;2.23;;;6.10;71.50;;;;;;5049039;28;20600;-68
2023/12/10 05:06:21;;;;;;;7.03;2.47;;;6.10;71.70;;;;;;5043280;28;20239;-67
2023/12/10 05:08:47;;;;;;;5.40;2.90;;;6.10;71.30;;;;;;5046454;28;20221;-67
2023/12/10 05:11:14;;;;;;;7.33;2.90;;;6.00;72.30;;;;;;5041948;28;20632;-67
2023/12/10 05:13:40;;;;;;;7.07;2.70;;;6.00;73.00;;;;;;5043377;28;20212;-68
2023/12/10 05:16:07;;;;;;;4.40;2.37;;;5.90;73.30;;;;;;5045016;28;20231;-67
2023/12/10 05:18:33;;;;;;;8.63;2.83;;;5.90;73.20;;;;;;5033141;28;20209;-68
2023/12/10 05:21:00;;;;;;;5.67;3.23;;;5.90;73.30;;;;;;5039287;28;20272;-67
2023/12/10 05:23:26;;;;;;;3.70;2.30;;;5.90;73.40;;;;;;5041859;28;20264;-67
2023/12/10 05:25:53;;;;;;;8.00;2.83;;;5.80;72.80;;;;;;5042146;28;20285;-67
2023/12/10 05:28:20;;;;;;;4.67;2.53;;;5.90;72.00;;;;;;5044603;28;20208;-68
2023/12/10 05:30:46;;;;;;;8.60;3.40;;;6.00;71.30;;;;;;5047748;28;20206;-68
2023/12/10 05:33:13;;;;;;;10.30;3.53;;;6.10;70.80;;;;;;5043861;28;20215;-68
2023/12/10 05:35:39;;;;;;;8.17;3.63;;;6.10;70.40;;;;;;5045012;28;20231;-68
2023/12/10 05:38:09;;;;;;;8.73;3.47;;;6.00;70.30;;;;;;5039451;28;20203;-67
2023/12/10 05:40:35;;;;;;;6.23;2.90;;;5.90;70.40;;;;;;5037086;28;20291;-67
2023/12/10 05:43:02;;;;;;;13.37;3.53;;;5.90;69.90;;;;;;5047191;28;20210;-67
2023/12/10 05:45:28;;;;;;;7.27;3.27;;;6.00;69.40;;;;;;5045384;28;20226;-67
2023/12/10 05:47:55;;;;;;;13.90;2.97;;;6.00;69.00;;;;;;5045506;28;20216;-68
2023/12/10 05:50:21;;;;;;;11.00;3.20;;;6.00;68.10;;;;;;5043424;28;20203;-68
2023/12/10 05:52:48;;;;;;;9.07;3.47;;;6.10;68.40;;;;;;5044791;28;20257;-68
2023/12/10 05:55:15;;;;;;;6.17;3.67;;;6.10;67.70;;;;;;5045007;28;20311;-67
2023/12/10 05:57:42;;;;;;;10.33;3.47;;;6.10;67.00;;;;;;5049805;28;20204;-68
2023/12/10 06:00:09;;;;;;;6.77;3.20;;;6.10;66.90;;;;;;5044715;28;20277;-68
2023/12/10 06:02:35;;;;;;;6.70;2.67;;;6.10;66.50;;;;;;5044129;28;20235;-68
2023/12/10 06:05:02;;;;;;;10.73;3.83;;;6.10;66.00;;;;;;5044825;28;20237;-68
2023/12/10 06:07:28;;;;;;;9.13;3.87;;;6.10;66.00;;;;;;5042704;28;20206;-68
2023/12/10 06:09:55;;;;;;;12.13;3.57;;;6.10;66.00;;;;;;5039528;28;20670;-68
2023/12/10 06:12:22;;;;;;;8.87;3.37;;;6.10;65.50;;;;;;5050075;28;20235;-68
2023/12/10 06:14:48;;;;;;;10.03;3.73;;;6.10;65.70;;;;;;5034412;28;20255;-68
2023/12/10 06:17:15;;;;;;;9.87;3.07;;;6.00;65.70;;;;;;5040315;28;20215;-67
2023/12/10 06:19:41;;;;;;;7.90;3.23;;;6.10;64.70;;;;;;5039913;28;20221;-68
2023/12/10 06:22:08;;;;;;;9.37;3.43;;;6.00;65.30;;;;;;5041786;28;20211;-66
2023/12/10 06:24:34;;;;;;;4.93;2.90;;;6.00;64.50;;;;;;5043684;28;20203;-67
2023/12/10 06:27:01;;;;;;;8.97;3.10;;;6.10;64.60;;;;;;5043404;28;20284;-68
2023/12/10 06:29:28;;;;;;;8.47;3.30;;;6.00;64.50;;;;;;5049005;28;20219;-68
2023/12/10 06:31:54;;;;;;;7.57;3.33;;;6.00;64.50;;;;;;5044482;28;20206;-68
2023/12/10 06:34:21;;;;;;;6.10;3.07;;;6.10;64.60;;;;;;5046204;28;20214;-68
2023/12/10 06:36:48;;;;;;;6.77;3.63;;;6.10;64.60;;;;;;5043823;28;20289;-68
2023/12/10 06:39:16;;;;;;;8.23;2.90;;;6.10;64.40;;;;;;5042925;28;20237;-68
2023/12/10 06:41:42;;;;;;;8.87;3.50;;;6.10;64.60;;;;;;5041566;28;20211;-67
2023/12/10 06:44:14;;;;;;;10.43;3.00;;;6.10;64.60;;;;;;5043200;28;20207;-67
2023/12/10 06:46:41;;;;;;;6.03;3.30;;;6.10;64.60;;;;;;5051468;28;20229;-68
2023/12/10 06:49:07;;;;;;;9.07;3.57;;;6.10;64.60;;;;;;5037959;28;20645;-67
2023/12/10 06:51:34;;;;;;;8.73;3.50;;;6.20;64.50;;;;;;5042121;28;20203;-67
2023/12/10 06:54:00;;;;;;;5.57;3.10;;;6.20;64.70;;;;;;5044332;28;20260;-67
2023/12/10 06:56:27;;;;;;;8.30;3.20;;;6.20;64.50;;;;;;5039685;28;20284;-67
2023/12/10 06:58:54;;;;;;;10.03;3.80;;;6.20;64.70;;;;;;5042384;28;20213;-66
2023/12/10 07:01:20;;;;;;;11.63;3.63;;;6.20;64.70;;;;;;5044695;28;20256;-66
2023/12/10 07:03:47;;;;;;;8.03;2.93;;;6.20;64.70;;;;;;5044234;28;20278;-67
2023/12/10 07:06:14;;;;;;;10.93;3.60;;;6.20;64.70;;;;;;5043549;28;20232;-67
2023/12/10 07:08:40;;;;;;;7.80;2.60;;;6.10;64.60;;;;;;5047570;28;20232;-65
2023/12/10 07:11:10;;;;;;;10.00;3.43;;;6.20;64.60;;;;;;5035674;28;20272;-68
2023/12/10 07:13:37;;;;;;;8.77;3.23;;;6.20;64.70;;;;;;5044339;28;20666;-66
2023/12/10 07:16:03;;;;;;;9.10;3.10;;;6.20;64.40;;;;;;5044804;28;20249;-67
2023/12/10 07:18:30;;;;;;;8.90;3.60;;;6.20;64.20;;;;;;5036938;28;20208;-67
2023/12/10 07:20:56;;;;;;;9.80;3.10;;;6.20;64.00;;;;;;5041299;28;20259;-67
2023/12/10 07:23:23;;;;;;;10.97;3.23;;;6.20;64.50;;;;;;5037252;28;20231;-66
2023/12/10 07:25:49;;;;;;;11.90;3.27;;;6.20;64.10;;;;;;5041194;28;20332;-66
2023/12/10 07:28:16;;;;;;;8.93;3.87;;;6.30;63.40;;;;;;5026971;28;20242;-67
2023/12/10 07:30:43;;;;;;;7.63;3.57;;;6.30;62.50;;;;;;5043967;28;20258;-67
2023/12/10 07:33:10;;;;;;;8.83;3.30;;;6.40;63.10;;;;;;5043056;28;20218;-67
2023/12/10 07:35:36;;;;;;;7.03;2.90;;;6.40;62.30;;;;;;5041015;28;20720;-67
2023/12/10 07:38:03;;;;;;;9.03;3.33;;;6.40;62.30;;;;;;5045813;28;20211;-67
2023/12/10 07:40:30;;;;;;;5.77;3.20;;;6.40;61.80;;;;;;5044177;28;20294;-68
2023/12/10 07:42:57;;;;;;;7.90;3.73;;;6.50;61.60;;;;;;5042948;28;20209;-67
2023/12/10 07:45:23;;;;;;;8.20;3.20;;;6.60;61.10;;;;;;5033688;28;20237;-67
2023/12/10 07:47:49;;;;;;;5.00;2.60;;;6.70;60.50;;;;;;5043780;28;20253;-67
2023/12/10 07:50:16;;;;;;;7.23;3.37;;;6.60;60.90;;;;;;5033645;28;20745;-68
2023/12/10 07:52:42;;;;;;;7.23;2.63;;;6.70;60.50;;;;;;5044108;28;20261;-67
2023/12/10 07:55:09;;;;;;;8.47;3.83;;;6.70;60.50;;;;;;5046401;28;20657;-67
2023/12/10 07:57:35;;;;;;;5.87;3.23;;;6.70;60.00;;;;;;5040935;28;20207;-68
2023/12/10 08:00:05;;;;;;;7.10;2.87;;;6.60;60.40;;;;;;5032422;28;20228;-68
2023/12/10 08:02:31;;;;;;;9.07;3.23;;;6.60;60.40;;;;;;5036243;28;20204;-68
2023/12/10 08:04:58;;;;;;;8.57;3.47;;;6.60;60.40;;;;;;5040671;28;20732;-68
2023/12/10 08:07:25;;;;;;;8.33;3.87;;;6.60;60.40;;;;;;5040200;28;20761;-68
2023/12/10 08:09:51;;;;;;;6.30;3.50;;;6.60;60.40;;;;;;5045627;28;20204;-68
2023/12/10 08:12:18;;;;;;;7.43;3.20;;;6.70;60.10;;;;;;5041197;28;20212;-66
2023/12/10 08:14:44;;;;;;;9.13;3.33;;;6.70;60.00;;;;;;5041587;28;20229;-65
2023/12/10 08:17:11;;;;;;;8.07;3.10;;;6.70;60.10;;;;;;5037557;28;20306;-65
2023/12/10 08:19:38;;;;;;;7.50;3.10;;;6.70;59.70;;;;;;5049269;28;20212;-66
2023/12/10 08:22:04;;;;;;;8.90;3.30;;;6.80;60.20;;;;;;5052123;28;20327;-66
2023/12/10 08:24:30;;;;;;;11.13;3.33;;;6.80;59.40;;;;;;5046832;28;20212;-66
2023/12/10 08:26:57;;;;;;;7.93;3.50;;;6.90;58.90;;;;;;5044033;28;20756;-66
2023/12/10 08:29:24;;;;;;;7.97;2.90;;;6.90;59.00;;;;;;5051727;28;20204;-67
2023/12/10 08:31:50;;;;;;;7.53;3.50;;;6.90;58.70;;;;;;5030002;28;20258;-67
2023/12/10 08:34:17;;;;;;;7.87;2.90;;;6.90;58.70;;;;;;5041624;28;20245;-67
2023/12/10 08:36:43;;;;;;;9.93;3.03;;;6.90;58.90;;;;;;5046946;28;20303;-67
2023/12/10 08:39:10;;;;;;;6.30;3.10;;;7.00;57.90;;;;;;5041438;28;20206;-66
2023/12/10 08:41:37;;;;;;;6.53;3.13;;;6.90;58.50;;;;;;5048328;28;20298;-66
2023/12/10 08:44:03;;;;;;;9.47;3.13;;;6.90;58.30;;;;;;5047085;28;20291;-67
2023/12/10 08:46:30;;;;;;;9.00;3.07;;;7.00;58.10;;;;;;5043697;28;20232;-67
2023/12/10 08:48:56;;;;;;;8.93;2.70;;;6.90;58.10;;;;;;5042364;28;20621;-67
2023/12/10 08:51:23;;;;;;;7.70;3.03;;;7.00;57.90;;;;;;5048396;28;20205;-68
2023/12/10 08:53:49;;;;;;;6.60;2.70;;;7.10;57.10;;;;;;5050099;28;20729;-68
2023/12/10 08:56:16;;;;;;;6.73;2.83;;;7.30;56.60;;;;;;5049601;28;20625;-68
2023/12/10 08:58:42;;;;;;;6.93;2.50;;;7.20;56.60;;;;;;5043006;28;21104;-68
2023/12/10 09:01:09;;;;;;;7.03;3.00;;;7.30;56.60;;;;;;5042996;28;20255;-68
2023/12/10 09:03:35;;;;;;;6.87;3.27;;;7.20;56.50;;;;;;5045442;28;20204;-68
2023/12/10 09:06:02;;;;;;;7.37;3.10;;;7.20;56.50;;;;;;5027367;28;20676;-66
2023/12/10 09:08:29;;;;;;;8.47;3.40;;;7.20;56.20;;;;;;5038743;28;20636;-67
2023/12/10 09:10:56;;;;;;;6.07;2.70;;;7.20;55.70;;;;;;5043237;28;20680;-67
2023/12/10 09:13:22;;;;;;;8.00;3.43;;;7.40;55.40;;;;;;5046421;28;20291;-66
2023/12/10 09:15:49;;;;;;;5.73;2.80;;;7.40;54.90;;;;;;5040965;28;20310;-67
2023/12/10 09:18:16;;;;;;;5.63;2.77;;;7.50;54.80;;;;;;5044157;28;20717;-67
2023/12/10 09:20:42;;;;;;;6.43;3.10;;;7.50;54.10;;;;;;5042181;28;20229;-67
2023/12/10 09:23:09;;;;;;;8.00;3.90;;;7.50;53.80;;;;;;5018967;28;20316;-67
2023/12/10 09:25:35;;;;;;;4.37;3.07;;;7.60;53.90;;;;;;5007079;28;20233;-67
2023/12/10 09:28:02;;;;;;;10.27;4.30;;;7.70;52.60;;;;;;5019603;28;20206;-67
2023/12/10 09:30:28;;;;;;;6.73;2.70;;;7.80;53.60;;;;;;5026492;28;20206;-67
2023/12/10 09:32:55;;;;;;;6.87;3.50;;;7.70;52.60;;;;;;5014549;28;20242;-67
2023/12/10 09:35:22;;;;;;;4.97;2.80;;;7.70;52.10;;;;;;5008434;28;20286;-67
2023/12/10 09:37:48;;;;;;;8.07;2.90;;;7.80;52.00;;;;;;5011700;28;20225;-68
2023/12/10 09:40:15;;;;;;;9.17;2.83;;;7.90;51.80;;;;;;5007619;28;20206;-67
2023/12/10 09:42:41;;;;;;;6.93;2.87;;;8.30;50.90;;;;;;5006901;28;20226;-60
2023/12/10 09:45:09;;;;;;;5.80;2.53;;;9.10;52.90;;;;;;5018181;28;20721;-63
2023/12/10 09:47:36;;;;;;;7.23;2.73;;;9.00;49.20;;;;;;5029549;28;20205;-64
2023/12/10 09:50:02;;;;;;;7.67;2.87;;;8.70;48.90;;;;;;5024745;28;20744;-64
2023/12/10 09:52:30;;;;;;;5.40;3.33;;;8.50;49.50;;;;;;5024563;28;20203;-64
2023/12/10 09:54:56;;;;;;;3.37;2.37;;;9.30;48.00;;;;;;5030958;28;20232;-66
2023/12/10 09:57:24;;;;;;;5.53;2.93;;;9.40;47.20;;;;;;5022408;28;20209;-66
2023/12/10 09:59:51;;;;;;;4.93;2.17;;;9.60;46.10;;;;;;5028285;28;20213;-65
2023/12/10 10:02:17;;;;;;;6.23;2.40;;;9.40;46.50;;;;;;5024495;28;20306;-65
2023/12/10 10:04:44;;;;;;;6.33;2.90;;;9.10;46.70;;;;;;5021046;28;20243;-66
2023/12/10 10:07:12;;;;;;;7.53;3.07;;;9.40;47.10;;;;;;5020937;28;20210;-65
2023/12/10 10:09:38;;;;;;;8.73;2.67;;;9.60;46.40;;;;;;5025073;28;20209;-65
2023/12/10 10:12:05;;;;;;;6.60;2.60;;;9.30;46.10;;;;;;5027516;28;20269;-65
2023/12/10 10:14:32;;;;;;;8.53;2.63;;;9.10;46.50;;;;;;5024166;28;20205;-65
2023/12/10 10:16:59;;;;;;;4.03;2.47;;;9.00;46.90;;;;;;5026269;28;20209;-66
2023/12/10 10:19:25;;;;;;;5.90;3.00;;;8.80;46.70;;;;;;5023128;28;20225;-66
2023/12/10 10:21:52;;;;;;;4.70;2.30;;;9.10;47.20;;;;;;5031984;28;20229;-65
2023/12/10 10:24:18;;;;;;;7.30;2.47;;;9.00;47.00;;;;;;5023449;28;20265;-65
2023/12/10 10:26:45;;;;;;;7.80;3.10;;;9.00;46.80;;;;;;5027814;28;20282;-66
2023/12/10 10:29:11;;;;;;;8.90;2.93;;;9.00;46.60;;;;;;5030970;28;20207;-66
2023/12/10 10:31:38;;;;;;;6.37;3.03;;;8.80;46.00;;;;;;5025727;28;20650;-66
2023/12/10 10:34:05;;;;;;;3.07;2.43;;;8.80;47.00;;;;;;5024524;28;20205;-66
2023/12/10 10:36:32;;;;;;;9.07;2.83;;;9.00;46.70;;;;;;5022766;28;20277;-66
2023/12/10 10:38:58;;;;;;;4.77;2.83;;;9.00;47.50;;;;;;5031226;28;20217;-66
2023/12/10 10:41:25;;;;;;;6.33;2.53;;;9.30;47.50;;;;;;5022147;28;20251;-66
2023/12/10 10:43:51;;;;;;;7.20;2.50;;;9.00;46.70;;;;;;5030582;28;20225;-66
2023/12/10 10:46:19;;;;;;;5.10;2.33;;;9.10;47.60;;;;;;5030291;28;20279;-66
2023/12/10 10:48:48;;;;;;;4.07;2.57;;;8.90;47.40;;;;;;5018641;28;20217;-66
2023/12/10 10:51:15;;;;;;;6.13;2.90;;;8.80;47.40;;;;;;5028551;28;20204;-66
2023/12/10 10:53:42;;;;;;;6.17;2.70;;;8.80;47.50;;;;;;5030768;28;20215;-67
2023/12/10 10:56:08;;;;;;;6.77;3.07;;;8.70;47.60;;;;;;5022622;28;20224;-66
2023/12/10 10:58:35;;;;;;;7.87;2.70;;;9.00;48.00;;;;;;5031157;28;20220;-66
2023/12/10 11:01:01;;;;;;;6.53;2.90;;;9.10;47.80;;;;;;5027650;28;20234;-67
2023/12/10 11:03:28;;;;;;;5.23;2.30;;;9.90;45.20;;;;;;5031316;28;20249;-67
2023/12/10 11:05:54;;;;;;;4.17;2.60;;;10.30;43.40;;;;;;5031600;28;20332;-67
2023/12/10 11:08:21;;;;;;;6.43;2.63;;;11.10;40.60;;;;;;5021596;28;20215;-67
2023/12/10 11:10:47;;;;;;;4.87;3.13;;;13.90;34.00;;;;;;5028204;28;20221;-66
2023/12/10 11:13:14;;;;;;;5.97;2.67;;;15.10;31.40;;;;;;5025946;28;20293;-67
2023/12/10 11:15:40;;;;;;;5.83;2.43;;;15.60;31.20;;;;;;5020724;28;20223;-66
2023/12/10 11:18:07;;;;;;;5.77;2.53;;;13.50;33.60;;;;;;5030858;28;20273;-67
2023/12/10 11:20:34;;;;;;;5.80;2.17;;;13.10;35.50;;;;;;5022706;28;20693;-67
2023/12/10 11:23:00;;;;;;;5.27;2.80;;;12.80;36.30;;;;;;5029742;28;20215;-67
2023/12/10 11:25:28;;;;;;;4.93;2.87;;;12.80;36.70;;;;;;5030549;28;20231;-66
2023/12/10 11:27:54;;;;;;;5.73;2.27;;;12.90;37.00;;;;;;5029718;28;20205;-67
2023/12/10 11:30:21;;;;;;;3.57;2.20;;;13.40;36.50;;;;;;5022362;28;20634;-68
2023/12/10 11:32:48;;;;;;;5.77;2.30;;;13.00;36.40;;;;;;5016691;28;20268;-67
2023/12/10 11:35:15;;;;;;;5.10;2.07;;;12.80;37.10;;;;;;5010409;28;20229;-67
2023/12/10 11:37:41;;;;;;;6.60;2.37;;;12.70;36.40;;;;;;5029545;28;20247;-67
2023/12/10 11:40:09;;;;;;;5.30;1.90;;;11.80;37.60;;;;;;5027569;28;20206;-70
2023/12/10 11:42:35;;;;;;;5.67;2.07;;;11.70;38.70;;;;;;5014970;28;20226;-68
2023/12/10 11:45:02;;;;;;;7.20;2.43;;;12.10;37.60;;;;;;5014907;28;20279;-69
2023/12/10 11:47:28;;;;;;;7.80;2.67;;;12.00;39.00;;;;;;5020685;28;20227;-68
2023/12/10 11:49:55;;;;;;;4.13;2.20;;;11.90;39.00;;;;;;5002619;28;20219;-68
2023/12/10 11:52:21;;;;;;;3.87;2.27;;;11.20;40.10;;;;;;5013212;28;20206;-69
2023/12/10 11:54:48;;;;;;;5.83;2.10;;;10.90;41.00;;;;;;5032179;28;20654;-68
2023/12/10 11:57:14;;;;;;;4.83;2.37;;;11.10;40.90;;;;;;5030010;28;20277;-68
2023/12/10 11:59:42;;;;;;;4.97;2.37;;;10.90;40.70;;;;;;5031141;28;20202;-66
2023/12/10 12:02:08;;;;;;;5.03;1.87;;;10.80;41.20;;;;;;5030622;28;20702;-67
2023/12/10 12:04:35;;;;;;;4.27;2.30;;;10.60;41.80;;;;;;5018270;28;20635;-69
2023/12/10 12:07:02;;;;;;;7.20;2.43;;;10.70;42.70;;;;;;5028812;28;20251;-67
2023/12/10 12:09:29;;;;;;;4.33;2.43;;;10.50;42.20;;;;;;5021987;28;20216;-66
2023/12/10 12:11:56;;;;;;;4.63;2.60;;;10.50;42.00;;;;;;5024685;28;20195;-66
2023/12/10 12:14:23;;;;;;;3.80;2.13;;;10.80;41.30;;;;;;5033324;28;20210;-66
2023/12/10 12:16:49;;;;;;;4.93;2.27;;;10.80;41.90;;;;;;5024858;28;20275;-66
2023/12/10 12:19:16;;;;;;;5.70;2.27;;;11.00;41.30;;;;;;5033209;28;20218;-66
2023/12/10 12:21:42;;;;;;;5.70;2.10;;;10.80;41.10;;;;;;5030949;28;20245;-66
2023/12/10 12:24:09;;;;;;;2.47;1.90;;;10.90;41.60;;;;;;5026531;28;20256;-66
2023/12/10 12:26:35;;;;;;;6.00;2.10;;;11.20;42.30;;;;;;5026590;28;20218;-66
2023/12/10 12:29:02;;;;;;;6.17;2.20;;;11.20;41.00;;;;;;5032115;28;20262;-66
2023/12/10 12:31:29;;;;;;;6.27;2.40;;;10.70;42.10;;;;;;5026771;28;20662;-67
2023/12/10 12:33:55;;;;;;;5.47;2.43;;;11.10;41.50;;;;;;5030930;28;20928;-66
2023/12/10 12:36:22;;;;;;;6.93;2.50;;;10.80;42.10;;;;;;5033215;28;20638;-66
2023/12/10 12:38:49;;;;;;;5.73;2.23;;;10.70;42.80;;;;;;5028219;28;20241;-66
2023/12/10 12:41:15;;;;;;;6.47;2.33;;;10.70;42.40;;;;;;5031044;28;20235;-67
2023/12/10 12:43:43;;;;;;;4.87;2.60;;;11.20;41.70;;;;;;5025279;28;20213;-67
2023/12/10 12:46:09;;;;;;;5.93;2.27;;;11.20;41.00;;;;;;5022580;28;20285;-67
2023/12/10 12:48:36;;;;;;;4.53;1.87;;;11.10;41.60;;;;;;5031783;28;20214;-67
2023/12/10 12:51:02;;;;;;;6.87;2.73;;;10.90;41.60;;;;;;5028653;28;20207;-67